createdAt,value
2016-07-06T00:00:01.806Z,969.94
2016-07-06T00:01:01.805Z,969.92
2016-07-06T00:02:01.809Z,969.9
2016-07-06T00:03:01.810Z,969.93
2016-07-06T00:04:01.809Z,969.9
2016-07-06T00:05:01.810Z,969.93
2016-07-06T00:06:01.814Z,969.9
2016-07-06T00:07:01.814Z,969.93
2016-07-06T00:08:01.814Z,969.9
2016-07-06T00:09:01.813Z,969.91
2016-07-06T00:10:01.814Z,969.89
2016-07-06T00:11:01.818Z,969.89
2016-07-06T00:12:01.818Z,969.87
2016-07-06T00:13:01.819Z,969.88
2016-07-06T00:14:01.818Z,969.88
2016-07-06T00:15:01.822Z,969.88
2016-07-06T00:16:01.822Z,969.91
2016-07-06T00:17:01.821Z,969.92
2016-07-06T00:18:01.823Z,969.91
2016-07-06T00:19:01.827Z,969.92
2016-07-06T00:20:01.827Z,969.96
2016-07-06T00:21:01.826Z,970
2016-07-06T00:22:01.827Z,969.99
2016-07-06T00:23:01.826Z,969.93
2016-07-06T00:24:01.828Z,969.95
2016-07-06T00:25:01.829Z,969.95
2016-07-06T00:26:01.827Z,969.99
2016-07-06T00:27:01.826Z,969.95
2016-07-06T00:28:01.829Z,969.94
2016-07-06T00:29:01.834Z,969.92
2016-07-06T00:30:01.830Z,969.91
2016-07-06T00:31:01.835Z,969.89
2016-07-06T00:32:01.834Z,969.92
2016-07-06T00:33:01.835Z,969.88
2016-07-06T00:34:01.834Z,969.89
2016-07-06T00:35:01.835Z,969.91
2016-07-06T00:36:01.839Z,969.95
2016-07-06T00:37:01.838Z,969.96
2016-07-06T00:38:01.839Z,969.96
2016-07-06T00:39:01.839Z,970.01
2016-07-06T00:40:01.843Z,969.99
2016-07-06T00:41:01.842Z,969.94
2016-07-06T00:42:01.843Z,969.97
2016-07-06T00:43:01.842Z,970
2016-07-06T00:44:01.847Z,970.02
2016-07-06T00:45:01.843Z,969.99
2016-07-06T00:46:01.846Z,969.98
2016-07-06T00:47:01.847Z,969.97
2016-07-06T00:48:01.851Z,969.98
2016-07-06T00:49:01.848Z,969.97
2016-07-06T00:50:01.848Z,969.96
2016-07-06T00:51:01.851Z,969.98
2016-07-06T00:52:01.850Z,969.92
2016-07-06T00:53:01.851Z,969.88
2016-07-06T00:54:01.855Z,969.91
2016-07-06T00:55:01.854Z,969.88
2016-07-06T00:56:01.855Z,969.91
2016-07-06T00:57:01.855Z,969.92
2016-07-06T00:58:01.850Z,969.97
2016-07-06T00:59:01.859Z,969.98
2016-07-06T01:00:01.859Z,969.97
2016-07-06T01:01:01.859Z,969.9
2016-07-06T01:02:01.859Z,969.92
2016-07-06T01:03:01.860Z,969.94
2016-07-06T01:04:01.862Z,969.91
2016-07-06T01:05:01.863Z,969.96
2016-07-06T01:06:01.874Z,969.95
2016-07-06T01:07:01.862Z,969.97
2016-07-06T01:08:01.863Z,970.01
2016-07-06T01:09:01.867Z,969.98
2016-07-06T01:10:01.867Z,969.99
2016-07-06T01:11:01.892Z,969.96
2016-07-06T01:12:01.923Z,969.98
2016-07-06T01:13:01.867Z,969.97
2016-07-06T01:14:01.871Z,970
2016-07-06T01:15:01.870Z,969.98
2016-07-06T01:16:01.867Z,969.96
2016-07-06T01:17:01.872Z,969.98
2016-07-06T01:18:01.871Z,969.93
2016-07-06T01:19:01.867Z,969.93
2016-07-06T01:20:01.875Z,969.97
2016-07-06T01:21:01.871Z,969.96
2016-07-06T01:22:01.876Z,969.96
2016-07-06T01:23:01.871Z,969.96
2016-07-06T01:24:01.875Z,969.97
2016-07-06T01:25:01.880Z,969.99
2016-07-06T01:26:01.879Z,969.96
2016-07-06T01:27:01.879Z,969.97
2016-07-06T01:28:01.875Z,969.99
2016-07-06T01:29:01.879Z,970
2016-07-06T01:30:01.879Z,970.01
2016-07-06T01:31:01.879Z,969.99
2016-07-06T01:32:01.879Z,969.99
2016-07-06T01:33:01.884Z,970.01
2016-07-06T01:34:01.879Z,970
2016-07-06T01:35:01.883Z,969.97
2016-07-06T01:36:01.888Z,970
2016-07-06T01:37:01.888Z,969.99
2016-07-06T01:38:01.888Z,969.97
2016-07-06T01:39:01.888Z,969.98
2016-07-06T01:40:01.888Z,969.98
2016-07-06T01:41:01.888Z,969.98
2016-07-06T01:42:01.893Z,969.98
2016-07-06T01:43:01.892Z,969.99
2016-07-06T01:44:01.888Z,970.01
2016-07-06T01:45:01.892Z,970.01
2016-07-06T01:46:01.893Z,969.98
2016-07-06T01:47:01.897Z,969.98
2016-07-06T01:48:01.893Z,969.99
2016-07-06T01:49:01.897Z,969.98
2016-07-06T01:50:01.895Z,969.98
2016-07-06T01:51:01.896Z,969.98
2016-07-06T01:52:01.896Z,970.01
2016-07-06T01:53:01.900Z,969.98
2016-07-06T01:54:01.898Z,969.91
2016-07-06T01:55:01.901Z,969.92
2016-07-06T01:56:01.897Z,969.89
2016-07-06T01:57:01.896Z,969.91
2016-07-06T01:58:01.901Z,969.92
2016-07-06T01:59:01.905Z,969.9
2016-07-06T02:00:01.904Z,969.89
2016-07-06T02:01:01.906Z,969.89
2016-07-06T02:02:01.906Z,969.92
2016-07-06T02:03:01.911Z,969.93
2016-07-06T02:04:01.910Z,969.91
2016-07-06T02:05:01.909Z,969.97
2016-07-06T02:06:01.910Z,969.96
2016-07-06T02:07:01.909Z,969.92
2016-07-06T02:08:01.905Z,969.93
2016-07-06T02:09:01.914Z,969.97
2016-07-06T02:10:01.909Z,969.96
2016-07-06T02:11:01.910Z,969.92
2016-07-06T02:12:01.914Z,969.94
2016-07-06T02:13:01.914Z,969.95
2016-07-06T02:14:01.912Z,969.93
2016-07-06T02:15:01.915Z,969.92
2016-07-06T02:16:01.918Z,969.88
2016-07-06T02:17:01.919Z,969.86
2016-07-06T02:18:02.118Z,969.89
2016-07-06T02:19:01.918Z,969.9
2016-07-06T02:20:01.923Z,969.83
2016-07-06T02:21:01.922Z,969.88
2016-07-06T02:22:01.921Z,969.83
2016-07-06T02:23:01.923Z,969.84
2016-07-06T02:24:01.923Z,969.86
2016-07-06T02:25:01.922Z,969.87
2016-07-06T02:26:01.927Z,969.87
2016-07-06T02:27:01.927Z,969.85
2016-07-06T02:28:01.926Z,969.88
2016-07-06T02:29:01.927Z,969.83
2016-07-06T02:30:01.930Z,969.81
2016-07-06T02:31:01.924Z,969.84
2016-07-06T02:32:01.933Z,969.86
2016-07-06T02:33:01.926Z,969.8
2016-07-06T02:34:01.930Z,969.84
2016-07-06T02:35:01.926Z,969.83
2016-07-06T02:36:01.928Z,969.82
2016-07-06T02:37:01.926Z,969.85
2016-07-06T02:38:01.933Z,969.8
2016-07-06T02:39:01.930Z,969.85
2016-07-06T02:40:01.935Z,969.88
2016-07-06T02:41:01.934Z,969.86
2016-07-06T02:42:01.934Z,969.88
2016-07-06T02:43:01.934Z,969.9
2016-07-06T02:44:01.935Z,969.88
2016-07-06T02:45:01.934Z,969.86
2016-07-06T02:46:01.933Z,969.89
2016-07-06T02:47:01.938Z,969.85
2016-07-06T02:48:01.933Z,969.85
2016-07-06T02:49:01.932Z,969.89
2016-07-06T02:50:01.933Z,969.88
2016-07-06T02:51:01.941Z,969.88
2016-07-06T02:52:01.942Z,969.92
2016-07-06T02:53:01.942Z,969.91
2016-07-06T02:54:01.942Z,969.91
2016-07-06T02:55:01.942Z,969.9
2016-07-06T02:56:01.945Z,969.86
2016-07-06T02:57:01.945Z,969.91
2016-07-06T02:58:01.947Z,969.93
2016-07-06T02:59:01.946Z,969.92
2016-07-06T03:00:01.947Z,969.96
2016-07-06T03:01:01.947Z,969.94
2016-07-06T03:02:01.946Z,969.95
2016-07-06T03:03:01.951Z,969.95
2016-07-06T03:04:01.951Z,969.92
2016-07-06T03:05:01.950Z,969.96
2016-07-06T03:06:01.951Z,969.95
2016-07-06T03:07:01.951Z,969.97
2016-07-06T03:08:01.955Z,969.96
2016-07-06T03:09:01.952Z,970
2016-07-06T03:10:01.953Z,969.97
2016-07-06T03:11:01.955Z,970
2016-07-06T03:12:01.955Z,969.98
2016-07-06T03:13:01.956Z,969.93
2016-07-06T03:14:01.951Z,969.98
2016-07-06T03:15:01.957Z,969.95
2016-07-06T03:16:01.955Z,969.98
2016-07-06T03:17:01.958Z,969.99
2016-07-06T03:18:01.957Z,970
2016-07-06T03:19:01.958Z,970.01
2016-07-06T03:20:01.956Z,970.03
2016-07-06T03:21:01.957Z,970.01
2016-07-06T03:22:01.963Z,970
2016-07-06T03:23:01.965Z,970
2016-07-06T03:24:01.964Z,970
2016-07-06T03:25:01.959Z,970
2016-07-06T03:26:01.964Z,969.97
2016-07-06T03:27:01.965Z,970
2016-07-06T03:28:01.968Z,969.99
2016-07-06T03:29:01.969Z,970.04
2016-07-06T03:30:01.969Z,970
2016-07-06T03:31:01.968Z,970
2016-07-06T03:32:01.970Z,970.06
2016-07-06T03:33:01.968Z,970.06
2016-07-06T03:34:01.970Z,970.11
2016-07-06T03:35:01.972Z,970.11
2016-07-06T03:36:01.972Z,970.08
2016-07-06T03:37:01.973Z,970.11
2016-07-06T03:38:01.971Z,970.09
2016-07-06T03:39:01.972Z,970.09
2016-07-06T03:40:01.973Z,970.14
2016-07-06T03:41:01.977Z,970.08
2016-07-06T03:42:01.976Z,970.11
2016-07-06T03:43:01.977Z,970.17
2016-07-06T03:44:01.978Z,970.21
2016-07-06T03:45:01.974Z,970.18
2016-07-06T03:46:01.978Z,970.12
2016-07-06T03:47:01.981Z,970.15
2016-07-06T03:48:01.976Z,970.17
2016-07-06T03:49:01.979Z,970.19
2016-07-06T03:50:01.980Z,970.18
2016-07-06T03:51:01.977Z,970.18
2016-07-06T03:52:01.981Z,970.2
2016-07-06T03:53:01.985Z,970.19
2016-07-06T03:54:01.986Z,970.2
2016-07-06T03:55:01.986Z,970.19
2016-07-06T03:56:01.985Z,970.14
2016-07-06T03:57:01.985Z,970.18
2016-07-06T03:58:01.981Z,970.18
2016-07-06T03:59:01.987Z,970.19
2016-07-06T04:00:01.988Z,970.18
2016-07-06T04:01:01.986Z,970.2
2016-07-06T04:02:01.985Z,970.22
2016-07-06T04:03:01.987Z,970.21
2016-07-06T04:04:01.989Z,970.21
2016-07-06T04:05:01.993Z,970.19
2016-07-06T04:06:01.994Z,970.25
2016-07-06T04:07:01.995Z,970.25
2016-07-06T04:08:01.993Z,970.28
2016-07-06T04:09:01.994Z,970.25
2016-07-06T04:10:01.991Z,970.24
2016-07-06T04:11:01.993Z,970.27
2016-07-06T04:12:01.992Z,970.28
2016-07-06T04:13:01.996Z,970.28
2016-07-06T04:14:01.992Z,970.31
2016-07-06T04:15:01.996Z,970.3
2016-07-06T04:16:01.997Z,970.35
2016-07-06T04:17:01.995Z,970.36
2016-07-06T04:18:01.992Z,970.38
2016-07-06T04:19:01.997Z,970.42
2016-07-06T04:20:02.000Z,970.43
2016-07-06T04:21:01.997Z,970.41
2016-07-06T04:22:02.000Z,970.42
2016-07-06T04:23:01.997Z,970.43
2016-07-06T04:24:01.997Z,970.41
2016-07-06T04:25:01.999Z,970.46
2016-07-06T04:26:02.003Z,970.44
2016-07-06T04:27:02.000Z,970.46
2016-07-06T04:28:02.003Z,970.46
2016-07-06T04:29:02.001Z,970.43
2016-07-06T04:30:01.999Z,970.47
2016-07-06T04:31:02.002Z,970.45
2016-07-06T04:32:02.007Z,970.45
2016-07-06T04:33:02.005Z,970.48
2016-07-06T04:34:02.006Z,970.46
2016-07-06T04:35:02.007Z,970.47
2016-07-06T04:36:02.005Z,970.47
2016-07-06T04:37:02.007Z,970.46
2016-07-06T04:38:02.007Z,970.43
2016-07-06T04:39:02.011Z,970.44
2016-07-06T04:40:02.010Z,970.5
2016-07-06T04:41:02.008Z,970.49
2016-07-06T04:42:02.006Z,970.5
2016-07-06T04:43:02.010Z,970.55
2016-07-06T04:44:02.006Z,970.54
2016-07-06T04:45:02.006Z,970.56
2016-07-06T04:46:02.015Z,970.52
2016-07-06T04:47:02.010Z,970.57
2016-07-06T04:48:02.015Z,970.54
2016-07-06T04:49:02.014Z,970.54
2016-07-06T04:50:02.013Z,970.54
2016-07-06T04:51:02.014Z,970.56
2016-07-06T04:52:02.014Z,970.54
2016-07-06T04:53:02.018Z,970.55
2016-07-06T04:54:02.019Z,970.55
2016-07-06T04:55:02.020Z,970.55
2016-07-06T04:56:02.014Z,970.57
2016-07-06T04:57:02.013Z,970.56
2016-07-06T04:58:02.019Z,970.61
2016-07-06T04:59:02.018Z,970.57
2016-07-06T05:00:02.023Z,970.59
2016-07-06T05:01:02.022Z,970.54
2016-07-06T05:02:02.020Z,970.58
2016-07-06T05:03:02.022Z,970.6
2016-07-06T05:04:02.024Z,970.55
2016-07-06T05:05:02.020Z,970.57
2016-07-06T05:06:02.023Z,970.61
2016-07-06T05:07:02.026Z,970.59
2016-07-06T05:08:02.024Z,970.61
2016-07-06T05:09:02.021Z,970.61
2016-07-06T05:10:02.023Z,970.59
2016-07-06T05:11:02.026Z,970.58
2016-07-06T05:12:02.028Z,970.58
2016-07-06T05:13:02.027Z,970.6
2016-07-06T05:14:02.027Z,970.61
2016-07-06T05:15:02.027Z,970.61
2016-07-06T05:16:02.035Z,970.63
2016-07-06T05:17:02.036Z,970.56
2016-07-06T05:18:02.035Z,970.6
2016-07-06T05:19:02.034Z,970.61
2016-07-06T05:20:02.033Z,970.55
2016-07-06T05:21:02.032Z,970.61
2016-07-06T05:22:02.033Z,970.62
2016-07-06T05:23:02.033Z,970.62
2016-07-06T05:24:02.038Z,970.6
2016-07-06T05:25:02.038Z,970.66
2016-07-06T05:26:02.038Z,970.65
2016-07-06T05:27:02.039Z,970.68
2016-07-06T05:28:02.042Z,970.71
2016-07-06T05:29:02.043Z,970.69
2016-07-06T05:30:02.041Z,970.66
2016-07-06T05:31:02.043Z,970.68
2016-07-06T05:32:02.045Z,970.66
2016-07-06T05:33:02.047Z,970.69
2016-07-06T05:34:02.048Z,970.68
2016-07-06T05:35:02.048Z,970.7
2016-07-06T05:36:02.046Z,970.73
2016-07-06T05:37:02.046Z,970.77
2016-07-06T05:38:02.048Z,970.73
2016-07-06T05:39:02.054Z,970.79
2016-07-06T05:40:02.052Z,970.8
2016-07-06T05:41:02.052Z,970.84
2016-07-06T05:42:02.053Z,970.82
2016-07-06T05:43:02.052Z,970.85
2016-07-06T05:44:02.053Z,970.86
2016-07-06T05:45:02.054Z,970.86
2016-07-06T05:46:02.048Z,970.91
2016-07-06T05:47:02.058Z,970.92
2016-07-06T05:48:02.056Z,970.94
2016-07-06T05:49:02.057Z,970.9
2016-07-06T05:50:02.058Z,970.93
2016-07-06T05:51:02.058Z,970.97
2016-07-06T05:52:02.061Z,970.93
2016-07-06T05:53:02.058Z,970.94
2016-07-06T05:54:02.061Z,970.95
2016-07-06T05:55:02.062Z,970.9
2016-07-06T05:56:02.061Z,970.94
2016-07-06T05:57:02.061Z,970.96
2016-07-06T05:58:02.060Z,970.95
2016-07-06T05:59:02.064Z,970.96
2016-07-06T06:00:02.064Z,970.96
2016-07-06T06:01:02.060Z,970.96
2016-07-06T06:02:02.065Z,970.96
2016-07-06T06:03:02.063Z,970.95
2016-07-06T06:04:02.064Z,970.99
2016-07-06T06:05:02.106Z,970.99
2016-07-06T06:06:02.069Z,970.99
2016-07-06T06:07:02.071Z,970.97
2016-07-06T06:08:02.070Z,971
2016-07-06T06:09:02.070Z,971.03
2016-07-06T06:10:02.069Z,971.02
2016-07-06T06:11:02.070Z,971.07
2016-07-06T06:12:02.070Z,971.05
2016-07-06T06:13:02.074Z,971.06
2016-07-06T06:14:02.074Z,971.04
2016-07-06T06:15:02.073Z,971.03
2016-07-06T06:16:02.078Z,971.05
2016-07-06T06:17:02.074Z,971.04
2016-07-06T06:18:02.078Z,971.04
2016-07-06T06:19:02.078Z,971.04
2016-07-06T06:20:02.076Z,971.04
2016-07-06T06:21:02.078Z,971.08
2016-07-06T06:22:02.078Z,971.07
2016-07-06T06:23:02.078Z,971.07
2016-07-06T06:24:02.082Z,971.09
2016-07-06T06:25:02.082Z,971.15
2016-07-06T06:26:02.082Z,971.12
2016-07-06T06:27:02.082Z,971.14
2016-07-06T06:28:02.082Z,971.13
2016-07-06T06:29:02.086Z,971.06
2016-07-06T06:30:02.086Z,971.09
2016-07-06T06:31:02.084Z,971.05
2016-07-06T06:32:02.087Z,971.07
2016-07-06T06:33:02.085Z,971.08
2016-07-06T06:34:02.084Z,971.09
2016-07-06T06:35:02.090Z,971.05
2016-07-06T06:36:02.093Z,971.09
2016-07-06T06:37:02.090Z,971.11
2016-07-06T06:38:02.086Z,971.12
2016-07-06T06:39:02.090Z,971.1
2016-07-06T06:40:02.095Z,971.15
2016-07-06T06:41:02.094Z,971.11
2016-07-06T06:42:02.094Z,971.17
2016-07-06T06:43:02.094Z,971.17
2016-07-06T06:44:02.095Z,971.14
2016-07-06T06:45:02.094Z,971.15
2016-07-06T06:46:02.098Z,971.2
2016-07-06T06:47:02.098Z,971.17
2016-07-06T06:48:02.099Z,971.18
2016-07-06T06:49:02.099Z,971.18
2016-07-06T06:50:02.098Z,971.22
2016-07-06T06:51:02.103Z,971.22
2016-07-06T06:52:02.103Z,971.24
2016-07-06T06:53:02.102Z,971.21
2016-07-06T06:54:02.103Z,971.19
2016-07-06T06:55:02.099Z,971.19
2016-07-06T06:56:02.103Z,971.18
2016-07-06T06:57:02.103Z,971.16
2016-07-06T06:58:02.107Z,971.14
2016-07-06T06:59:02.107Z,971.11
2016-07-06T07:00:02.107Z,971.13
2016-07-06T07:01:02.107Z,971.1
2016-07-06T07:02:02.107Z,971.16
2016-07-06T07:03:02.111Z,971.17
2016-07-06T07:04:02.108Z,971.14
2016-07-06T07:05:02.115Z,971.18
2016-07-06T07:06:02.115Z,971.19
2016-07-06T07:07:02.111Z,971.19
2016-07-06T07:08:02.116Z,971.16
2016-07-06T07:09:02.115Z,971.19
2016-07-06T07:10:02.111Z,971.16
2016-07-06T07:11:02.114Z,971.21
2016-07-06T07:12:02.119Z,971.24
2016-07-06T07:13:02.120Z,971.28
2016-07-06T07:14:02.120Z,971.22
2016-07-06T07:15:02.116Z,971.24
2016-07-06T07:16:02.124Z,971.27
2016-07-06T07:17:02.124Z,971.22
2016-07-06T07:18:02.124Z,971.25
2016-07-06T07:19:02.124Z,971.26
2016-07-06T07:20:02.127Z,971.24
2016-07-06T07:21:02.128Z,971.23
2016-07-06T07:22:02.127Z,971.25
2016-07-06T07:23:02.129Z,971.25
2016-07-06T07:24:02.128Z,971.25
2016-07-06T07:25:02.128Z,971.28
2016-07-06T07:26:02.128Z,971.3
2016-07-06T07:27:02.132Z,971.26
2016-07-06T07:28:02.132Z,971.29
2016-07-06T07:29:02.132Z,971.29
2016-07-06T07:30:02.137Z,971.3
2016-07-06T07:31:02.132Z,971.35
2016-07-06T07:32:02.137Z,971.35
2016-07-06T07:33:02.136Z,971.36
2016-07-06T07:34:02.136Z,971.36
2016-07-06T07:35:02.140Z,971.38
2016-07-06T07:36:02.140Z,971.4
2016-07-06T07:37:02.138Z,971.38
2016-07-06T07:38:02.138Z,971.36
2016-07-06T07:39:02.140Z,971.4
2016-07-06T07:40:02.144Z,971.37
2016-07-06T07:41:02.144Z,971.38
2016-07-06T07:42:02.145Z,971.39
2016-07-06T07:43:02.144Z,971.38
2016-07-06T07:44:02.148Z,971.38
2016-07-06T07:45:02.143Z,971.35
2016-07-06T07:46:02.149Z,971.39
2016-07-06T07:47:02.149Z,971.38
2016-07-06T07:48:02.152Z,971.37
2016-07-06T07:49:02.153Z,971.4
2016-07-06T07:50:02.153Z,971.4
2016-07-06T07:51:02.152Z,971.38
2016-07-06T07:52:02.155Z,971.41
2016-07-06T07:53:02.157Z,971.39
2016-07-06T07:54:02.166Z,971.37
2016-07-06T07:55:02.160Z,971.38
2016-07-06T07:56:02.154Z,971.37
2016-07-06T07:57:02.161Z,971.36
2016-07-06T07:58:02.161Z,971.36
2016-07-06T07:59:02.160Z,971.34
2016-07-06T08:00:02.162Z,971.34
2016-07-06T08:01:02.162Z,971.35
2016-07-06T08:02:02.165Z,971.33
2016-07-06T08:03:02.165Z,971.36
2016-07-06T08:04:02.164Z,971.35
2016-07-06T08:05:02.169Z,971.34
2016-07-06T08:06:02.166Z,971.29
2016-07-06T08:07:02.168Z,971.32
2016-07-06T08:08:02.167Z,971.3
2016-07-06T08:09:02.173Z,971.33
2016-07-06T08:10:02.173Z,971.32
2016-07-06T08:11:02.171Z,971.38
2016-07-06T08:12:02.170Z,971.31
2016-07-06T08:13:02.170Z,971.29
2016-07-06T08:14:02.172Z,971.28
2016-07-06T08:15:02.174Z,971.3
2016-07-06T08:16:02.175Z,971.33
2016-07-06T08:17:02.180Z,971.27
2016-07-06T08:18:02.178Z,971.27
2016-07-06T08:19:02.175Z,971.33
2016-07-06T08:20:02.178Z,971.3
2016-07-06T08:21:02.180Z,971.26
2016-07-06T08:22:02.182Z,971.3
2016-07-06T08:23:02.183Z,971.26
2016-07-06T08:24:02.185Z,971.27
2016-07-06T08:25:02.184Z,971.28
2016-07-06T08:26:02.186Z,971.23
2016-07-06T08:27:02.188Z,971.24
2016-07-06T08:28:02.192Z,971.25
2016-07-06T08:29:02.193Z,971.23
2016-07-06T08:30:02.191Z,971.22
2016-07-06T08:31:02.194Z,971.19
2016-07-06T08:32:02.197Z,971.19
2016-07-06T08:33:02.194Z,971.21
2016-07-06T08:34:02.192Z,971.21
2016-07-06T08:35:02.195Z,971.23
2016-07-06T08:36:02.195Z,971.25
2016-07-06T08:37:02.196Z,971.25
2016-07-06T08:38:02.205Z,971.26
2016-07-06T08:39:02.206Z,971.26
2016-07-06T08:40:02.205Z,971.28
2016-07-06T08:41:02.207Z,971.28
2016-07-06T08:42:02.209Z,971.22
2016-07-06T08:43:02.208Z,971.19
2016-07-06T08:44:02.208Z,971.28
2016-07-06T08:45:02.212Z,971.3
2016-07-06T08:46:02.209Z,971.34
2016-07-06T08:47:02.217Z,971.31
2016-07-06T08:48:02.217Z,971.33
2016-07-06T08:49:02.217Z,971.32
2016-07-06T08:50:02.221Z,971.33
2016-07-06T08:51:02.220Z,971.34
2016-07-06T08:52:02.217Z,971.33
2016-07-06T08:53:02.220Z,971.32
2016-07-06T08:54:02.224Z,971.36
2016-07-06T08:55:02.226Z,971.36
2016-07-06T08:56:02.229Z,971.38
2016-07-06T08:57:02.230Z,971.37
2016-07-06T08:58:02.230Z,971.36
2016-07-06T08:59:02.230Z,971.35
2016-07-06T09:00:02.234Z,971.34
2016-07-06T09:01:02.234Z,971.37
2016-07-06T09:02:02.240Z,971.4
2016-07-06T09:03:02.242Z,971.37
2016-07-06T09:04:02.237Z,971.39
2016-07-06T09:05:02.238Z,971.38
2016-07-06T09:06:02.243Z,971.39
2016-07-06T09:07:02.242Z,971.38
2016-07-06T09:08:02.246Z,971.36
2016-07-06T09:09:02.246Z,971.35
2016-07-06T09:10:02.246Z,971.37
2016-07-06T09:11:02.246Z,971.34
2016-07-06T09:12:02.251Z,971.35
2016-07-06T09:13:02.250Z,971.35
2016-07-06T09:14:02.255Z,971.35
2016-07-06T09:15:02.253Z,971.36
2016-07-06T09:16:02.254Z,971.36
2016-07-06T09:17:02.258Z,971.37
2016-07-06T09:18:02.262Z,971.32
2016-07-06T09:19:02.259Z,971.33
2016-07-06T09:20:02.262Z,971.31
2016-07-06T09:21:02.262Z,971.29
2016-07-06T09:22:02.262Z,971.32
2016-07-06T09:23:02.264Z,971.33
2016-07-06T09:24:02.282Z,971.34
2016-07-06T09:25:02.266Z,971.34
2016-07-06T09:26:02.270Z,971.35
2016-07-06T09:27:02.273Z,971.33
2016-07-06T09:28:02.270Z,971.33
2016-07-06T09:29:02.274Z,971.31
2016-07-06T09:30:02.274Z,971.32
2016-07-06T09:31:02.274Z,971.34
2016-07-06T09:32:02.281Z,971.32
2016-07-06T09:33:02.278Z,971.36
2016-07-06T09:34:02.278Z,971.31
2016-07-06T09:35:02.282Z,971.34
2016-07-06T09:36:02.281Z,971.31
2016-07-06T09:37:02.286Z,971.34
2016-07-06T09:38:02.284Z,971.29
2016-07-06T09:39:02.293Z,971.3
2016-07-06T09:40:02.283Z,971.27
2016-07-06T09:41:02.286Z,971.27
2016-07-06T09:42:02.289Z,971.28
2016-07-06T09:43:02.294Z,971.29
2016-07-06T09:44:02.292Z,971.27
2016-07-06T09:45:02.295Z,971.26
2016-07-06T09:46:02.296Z,971.24
2016-07-06T09:47:02.296Z,971.28
2016-07-06T09:48:02.296Z,971.28
2016-07-06T09:49:02.302Z,971.25
2016-07-06T09:50:02.298Z,971.27
2016-07-06T09:51:02.300Z,971.28
2016-07-06T09:52:02.307Z,971.27
2016-07-06T09:53:02.306Z,971.25
2016-07-06T09:54:02.307Z,971.23
2016-07-06T09:55:02.308Z,971.23
2016-07-06T09:56:02.308Z,971.21
2016-07-06T09:57:02.315Z,971.21
2016-07-06T09:58:02.315Z,971.22
2016-07-06T09:59:02.312Z,971.24
2016-07-06T10:00:02.316Z,971.25
2016-07-06T10:01:02.316Z,971.23
2016-07-06T10:02:02.314Z,971.21
2016-07-06T10:03:02.321Z,971.2
2016-07-06T10:04:02.322Z,971.19
2016-07-06T10:05:02.321Z,971.18
2016-07-06T10:06:02.325Z,971.2
2016-07-06T10:07:02.322Z,971.23
2016-07-06T10:08:02.337Z,971.24
2016-07-06T10:09:02.330Z,971.23
2016-07-06T10:10:02.331Z,971.24
2016-07-06T10:11:02.333Z,971.27
2016-07-06T10:12:02.330Z,971.28
2016-07-06T10:13:02.340Z,971.3
2016-07-06T10:14:02.337Z,971.27
2016-07-06T10:15:02.343Z,971.3
2016-07-06T10:16:02.343Z,971.26
2016-07-06T10:17:02.343Z,971.26
2016-07-06T10:18:02.347Z,971.25
2016-07-06T10:19:02.345Z,971.27
2016-07-06T10:20:02.351Z,971.26
2016-07-06T10:21:02.352Z,971.26
2016-07-06T10:22:02.353Z,971.24
2016-07-06T10:23:02.351Z,971.21
2016-07-06T10:24:02.356Z,971.23
2016-07-06T10:25:02.356Z,971.23
2016-07-06T10:26:02.359Z,971.23
2016-07-06T10:27:02.359Z,971.24
2016-07-06T10:28:02.362Z,971.3
2016-07-06T10:29:02.362Z,971.27
2016-07-06T10:30:02.360Z,971.25
2016-07-06T10:31:02.365Z,971.25
2016-07-06T10:32:02.369Z,971.29
2016-07-06T10:33:02.369Z,971.29
2016-07-06T10:34:02.373Z,971.29
2016-07-06T10:35:02.378Z,971.26
2016-07-06T10:36:02.374Z,971.28
2016-07-06T10:37:02.375Z,971.29
2016-07-06T10:38:02.377Z,971.32
2016-07-06T10:39:02.377Z,971.31
2016-07-06T10:40:02.381Z,971.27
2016-07-06T10:41:02.381Z,971.29
2016-07-06T10:42:02.386Z,971.29
2016-07-06T10:43:02.384Z,971.25
2016-07-06T10:44:02.388Z,971.25
2016-07-06T10:45:02.390Z,971.29
2016-07-06T10:46:02.389Z,971.25
2016-07-06T10:47:02.393Z,971.25
2016-07-06T10:48:02.393Z,971.24
2016-07-06T10:49:02.392Z,971.23
2016-07-06T10:50:02.398Z,971.24
2016-07-06T10:51:02.398Z,971.3
2016-07-06T10:52:02.401Z,971.26
2016-07-06T10:53:02.400Z,971.23
2016-07-06T10:54:02.402Z,971.2
2016-07-06T10:55:02.400Z,971.17
2016-07-06T10:56:02.411Z,971.18
2016-07-06T10:57:02.405Z,971.18
2016-07-06T10:58:02.409Z,971.16
2016-07-06T10:59:03.369Z,971.18
2016-07-06T11:00:02.409Z,971.17
2016-07-06T11:01:02.413Z,971.18
2016-07-06T11:02:02.417Z,971.18
2016-07-06T11:03:02.418Z,971.19
2016-07-06T11:04:02.417Z,971.2
2016-07-06T11:05:02.421Z,971.25
2016-07-06T11:06:02.422Z,971.22
2016-07-06T11:07:02.421Z,971.24
2016-07-06T11:08:02.425Z,971.22
2016-07-06T11:09:02.426Z,971.24
2016-07-06T11:10:02.429Z,971.19
2016-07-06T11:11:02.430Z,971.15
2016-07-06T11:12:02.426Z,971.16
2016-07-06T11:13:02.433Z,971.21
2016-07-06T11:14:02.434Z,971.21
2016-07-06T11:15:02.434Z,971.2
2016-07-06T11:16:02.437Z,971.19
2016-07-06T11:17:02.438Z,971.15
2016-07-06T11:18:02.438Z,971.13
2016-07-06T11:19:02.442Z,971.11
2016-07-06T11:20:02.442Z,971.1
2016-07-06T11:21:02.446Z,971.07
2016-07-06T11:22:02.446Z,971.11
2016-07-06T11:23:02.446Z,971.07
2016-07-06T11:24:02.450Z,971.1
2016-07-06T11:25:02.450Z,971.03
2016-07-06T11:26:02.455Z,971.01
2016-07-06T11:27:02.454Z,970.97
2016-07-06T11:28:02.459Z,970.98
2016-07-06T11:29:02.459Z,971.06
2016-07-06T11:30:02.459Z,970.99
2016-07-06T11:31:02.462Z,970.99
2016-07-06T11:32:02.457Z,970.95
2016-07-06T11:33:02.469Z,970.95
2016-07-06T11:34:02.462Z,970.96
2016-07-06T11:35:02.466Z,970.95
2016-07-06T11:36:02.471Z,970.92
2016-07-06T11:37:02.466Z,970.87
2016-07-06T11:38:02.470Z,970.96
2016-07-06T11:39:02.470Z,970.96
2016-07-06T11:40:02.474Z,970.94
2016-07-06T11:41:02.475Z,970.92
2016-07-06T11:42:02.474Z,970.92
2016-07-06T11:43:02.479Z,970.89
2016-07-06T11:44:02.478Z,970.84
2016-07-06T11:45:02.483Z,970.85
2016-07-06T11:46:02.483Z,970.83
2016-07-06T11:47:02.482Z,970.89
2016-07-06T11:48:02.483Z,970.86
2016-07-06T11:49:02.486Z,970.89
2016-07-06T11:50:02.486Z,970.88
2016-07-06T11:51:02.491Z,970.85
2016-07-06T11:52:02.491Z,970.83
2016-07-06T11:53:02.542Z,970.82
2016-07-06T11:54:02.495Z,970.87
2016-07-06T11:55:02.494Z,970.87
2016-07-06T11:56:02.498Z,970.88
2016-07-06T11:57:02.499Z,970.9
2016-07-06T11:58:02.499Z,970.89
2016-07-06T11:59:02.502Z,970.89
2016-07-06T12:00:02.503Z,970.87
2016-07-06T12:01:02.506Z,970.88
2016-07-06T12:02:02.505Z,970.83
2016-07-06T12:03:02.505Z,970.85
2016-07-06T12:04:02.516Z,970.84
2016-07-06T12:05:02.515Z,970.83
2016-07-06T12:06:02.515Z,970.76
2016-07-06T12:07:02.520Z,970.78
2016-07-06T12:08:02.520Z,970.77
2016-07-06T12:09:02.518Z,970.75
2016-07-06T12:10:02.523Z,970.73
2016-07-06T12:11:02.528Z,970.75
2016-07-06T12:12:02.527Z,970.74
2016-07-06T12:13:02.528Z,970.73
2016-07-06T12:14:02.531Z,970.75
2016-07-06T12:15:02.531Z,970.69
2016-07-06T12:16:02.531Z,970.69
2016-07-06T12:17:02.532Z,970.66
2016-07-06T12:18:02.531Z,970.67
2016-07-06T12:19:02.540Z,970.67
2016-07-06T12:20:02.544Z,970.68
2016-07-06T12:21:02.544Z,970.67
2016-07-06T12:22:02.544Z,970.64
2016-07-06T12:23:02.548Z,970.66
2016-07-06T12:24:02.544Z,970.69
2016-07-06T12:25:02.543Z,970.69
2016-07-06T12:26:02.553Z,970.69
2016-07-06T12:27:02.552Z,970.67
2016-07-06T12:28:02.553Z,970.73
2016-07-06T12:29:02.566Z,970.62
2016-07-06T12:30:02.551Z,970.6
2016-07-06T12:31:02.556Z,970.61